sensor_id;sensor_type;location;lat;lon;timestamp;pressure;altitude;pressure_sealevel;temperature;humidity
55171;BME280;41060;47.510;8.680;2022-07-06T00:01:11;97558.66;;;24.06;36.20
55171;BME280;41060;47.510;8.680;2022-07-06T00:03:38;97557.88;;;24.12;36.34
55171;BME280;41060;47.510;8.680;2022-07-06T00:06:05;97560.16;;;24.09;36.58
55171;BME280;41060;47.510;8.680;2022-07-06T00:08:33;97563.66;;;24.03;36.49
55171;BME280;41060;47.510;8.680;2022-07-06T00:11:00;97558.28;;;24.09;36.35
55171;BME280;41060;47.510;8.680;2022-07-06T00:13:27;97558.53;;;24.14;36.39
55171;BME280;41060;47.510;8.680;2022-07-06T00:15:56;97560.09;;;24.30;36.03
55171;BME280;41060;47.510;8.680;2022-07-06T00:18:24;97566.25;;;24.17;36.45
55171;BME280;41060;47.510;8.680;2022-07-06T00:20:51;97564.44;;;24.03;36.84
55171;BME280;41060;47.510;8.680;2022-07-06T00:23:18;97562.25;;;23.86;38.15
55171;BME280;41060;47.510;8.680;2022-07-06T00:25:46;97567.13;;;23.75;37.71
55171;BME280;41060;47.510;8.680;2022-07-06T00:28:15;97565.97;;;23.63;37.91
55171;BME280;41060;47.510;8.680;2022-07-06T00:30:42;97537.97;;;23.28;39.26
55171;BME280;41060;47.510;8.680;2022-07-06T00:33:08;97571.09;;;22.86;40.43
55171;BME280;41060;47.510;8.680;2022-07-06T00:35:36;97588.44;;;22.10;42.22
55171;BME280;41060;47.510;8.680;2022-07-06T00:38:02;97587.03;;;21.54;42.66
55171;BME280;41060;47.510;8.680;2022-07-06T00:40:30;97581.22;;;21.42;42.95
55171;BME280;41060;47.510;8.680;2022-07-06T00:42:58;97578.72;;;21.86;41.72
55171;BME280;41060;47.510;8.680;2022-07-06T00:45:25;97585.38;;;22.13;41.52
55171;BME280;41060;47.510;8.680;2022-07-06T00:47:52;97578.84;;;22.45;40.54
55171;BME280;41060;47.510;8.680;2022-07-06T00:50:20;97579.41;;;22.18;41.20
55171;BME280;41060;47.510;8.680;2022-07-06T00:52:49;97582.56;;;22.07;42.20
55171;BME280;41060;47.510;8.680;2022-07-06T00:55:18;97572.31;;;22.40;41.38
55171;BME280;41060;47.510;8.680;2022-07-06T00:57:46;97568.69;;;22.77;40.07
55171;BME280;41060;47.510;8.680;2022-07-06T01:00:16;97559.72;;;23.06;39.25
55171;BME280;41060;47.510;8.680;2022-07-06T01:02:44;97555.97;;;23.21;38.95
55171;BME280;41060;47.510;8.680;2022-07-06T01:05:13;97566.97;;;23.05;39.22
55171;BME280;41060;47.510;8.680;2022-07-06T01:07:42;97568.47;;;22.93;39.57
55171;BME280;41060;47.510;8.680;2022-07-06T01:10:11;97570.81;;;22.96;39.55
55171;BME280;41060;47.510;8.680;2022-07-06T01:12:40;97570.69;;;23.04;39.41
55171;BME280;41060;47.510;8.680;2022-07-06T01:15:09;97570.63;;;23.12;39.65
55171;BME280;41060;47.510;8.680;2022-07-06T01:17:38;97574.22;;;23.19;38.53
55171;BME280;41060;47.510;8.680;2022-07-06T01:20:10;97569.75;;;23.26;38.74
55171;BME280;41060;47.510;8.680;2022-07-06T01:22:37;97560.94;;;23.39;38.46
55171;BME280;41060;47.510;8.680;2022-07-06T01:25:05;97565.50;;;23.38;38.36
55171;BME280;41060;47.510;8.680;2022-07-06T01:27:33;97566.44;;;23.10;38.90
55171;BME280;41060;47.510;8.680;2022-07-06T01:30:03;97564.38;;;23.12;39.00
55171;BME280;41060;47.510;8.680;2022-07-06T01:32:30;97559.50;;;23.07;38.97
55171;BME280;41060;47.510;8.680;2022-07-06T01:34:57;97560.38;;;22.93;39.04
55171;BME280;41060;47.510;8.680;2022-07-06T01:37:26;97569.69;;;23.05;38.86
55171;BME280;41060;47.510;8.680;2022-07-06T01:39:52;97570.28;;;23.07;38.58
55171;BME280;41060;47.510;8.680;2022-07-06T01:42:19;97571.25;;;23.14;38.59
55171;BME280;41060;47.510;8.680;2022-07-06T01:44:46;97567.50;;;23.15;39.18
55171;BME280;41060;47.510;8.680;2022-07-06T01:47:13;97567.59;;;23.07;38.90
55171;BME280;41060;47.510;8.680;2022-07-06T01:49:40;97561.69;;;22.97;39.07
55171;BME280;41060;47.510;8.680;2022-07-06T01:52:07;97560.38;;;22.93;38.61
55171;BME280;41060;47.510;8.680;2022-07-06T01:54:35;97558.88;;;23.05;38.75
55171;BME280;41060;47.510;8.680;2022-07-06T01:57:03;97560.91;;;23.03;38.50
55171;BME280;41060;47.510;8.680;2022-07-06T01:59:32;97562.34;;;22.99;37.91
55171;BME280;41060;47.510;8.680;2022-07-06T02:01:58;97561.50;;;22.98;38.84
55171;BME280;41060;47.510;8.680;2022-07-06T02:04:26;97564.19;;;22.98;38.45
55171;BME280;41060;47.510;8.680;2022-07-06T02:06:53;97568.00;;;22.16;40.41
55171;BME280;41060;47.510;8.680;2022-07-06T02:09:19;97570.13;;;21.60;41.49
55171;BME280;41060;47.510;8.680;2022-07-06T02:11:48;97563.56;;;21.40;42.39
55171;BME280;41060;47.510;8.680;2022-07-06T02:14:15;97564.22;;;21.19;42.35
55171;BME280;41060;47.510;8.680;2022-07-06T02:16:41;97564.56;;;21.16;42.69
55171;BME280;41060;47.510;8.680;2022-07-06T02:19:08;97566.59;;;21.37;42.44
55171;BME280;41060;47.510;8.680;2022-07-06T02:21:35;97565.81;;;21.05;42.26
55171;BME280;41060;47.510;8.680;2022-07-06T02:24:02;97567.19;;;21.24;42.10
55171;BME280;41060;47.510;8.680;2022-07-06T02:26:29;97568.94;;;21.40;41.71
55171;BME280;41060;47.510;8.680;2022-07-06T02:28:57;97565.97;;;21.58;41.27
55171;BME280;41060;47.510;8.680;2022-07-06T02:31:24;97563.16;;;21.74;40.98
55171;BME280;41060;47.510;8.680;2022-07-06T02:33:51;97557.16;;;21.86;40.29
55171;BME280;41060;47.510;8.680;2022-07-06T02:36:20;97562.94;;;21.98;40.02
55171;BME280;41060;47.510;8.680;2022-07-06T02:38:46;97563.69;;;22.07;39.42
55171;BME280;41060;47.510;8.680;2022-07-06T02:41:14;97554.69;;;22.14;39.49
55171;BME280;41060;47.510;8.680;2022-07-06T02:43:40;97563.53;;;22.23;39.90
55171;BME280;41060;47.510;8.680;2022-07-06T02:46:08;97559.72;;;22.17;39.86
55171;BME280;41060;47.510;8.680;2022-07-06T02:48:38;97565.31;;;22.31;40.16
55171;BME280;41060;47.510;8.680;2022-07-06T02:51:05;97563.06;;;22.34;39.83
55171;BME280;41060;47.510;8.680;2022-07-06T02:53:31;97567.94;;;22.39;40.19
55171;BME280;41060;47.510;8.680;2022-07-06T02:55:59;97574.16;;;22.39;40.05
55171;BME280;41060;47.510;8.680;2022-07-06T02:58:25;97575.38;;;22.37;40.34
55171;BME280;41060;47.510;8.680;2022-07-06T03:00:52;97567.25;;;22.07;40.58
55171;BME280;41060;47.510;8.680;2022-07-06T03:03:21;97579.78;;;22.00;40.58
55171;BME280;41060;47.510;8.680;2022-07-06T03:05:47;97585.28;;;21.38;41.85
55171;BME280;41060;47.510;8.680;2022-07-06T03:08:14;97590.38;;;21.33;42.09
55171;BME280;41060;47.510;8.680;2022-07-06T03:10:42;97588.69;;;21.01;42.37
55171;BME280;41060;47.510;8.680;2022-07-06T03:13:08;97589.69;;;20.61;43.11
55171;BME280;41060;47.510;8.680;2022-07-06T03:15:35;97591.00;;;20.65;43.38
55171;BME280;41060;47.510;8.680;2022-07-06T03:18:02;97591.56;;;20.61;42.74
55171;BME280;41060;47.510;8.680;2022-07-06T03:20:31;97592.19;;;20.63;42.76
55171;BME280;41060;47.510;8.680;2022-07-06T03:22:57;97583.84;;;20.89;42.44
55171;BME280;41060;47.510;8.680;2022-07-06T03:25:24;97581.72;;;21.15;42.19
55171;BME280;41060;47.510;8.680;2022-07-06T03:27:51;97587.31;;;21.36;41.72
55171;BME280;41060;47.510;8.680;2022-07-06T03:30:18;97585.84;;;21.57;41.54
55171;BME280;41060;47.510;8.680;2022-07-06T03:32:45;97595.34;;;21.67;40.63
55171;BME280;41060;47.510;8.680;2022-07-06T03:35:12;97580.72;;;21.70;40.24
55171;BME280;41060;47.510;8.680;2022-07-06T03:37:42;97581.41;;;21.64;40.47
55171;BME280;41060;47.510;8.680;2022-07-06T03:40:10;97578.88;;;21.62;40.55
55171;BME280;41060;47.510;8.680;2022-07-06T03:42:37;97583.25;;;21.63;40.87
55171;BME280;41060;47.510;8.680;2022-07-06T03:45:04;97587.00;;;21.85;40.98
55171;BME280;41060;47.510;8.680;2022-07-06T03:47:32;97587.03;;;22.00;40.52
55171;BME280;41060;47.510;8.680;2022-07-06T03:49:58;97588.97;;;22.06;39.75
55171;BME280;41060;47.510;8.680;2022-07-06T03:52:25;97588.91;;;22.14;39.94
55171;BME280;41060;47.510;8.680;2022-07-06T03:54:54;97583.06;;;22.25;39.40
55171;BME280;41060;47.510;8.680;2022-07-06T03:57:21;97586.28;;;22.06;39.86
55171;BME280;41060;47.510;8.680;2022-07-06T03:59:48;97580.66;;;21.78;40.50
55171;BME280;41060;47.510;8.680;2022-07-06T04:02:15;97585.19;;;21.77;40.72
55171;BME280;41060;47.510;8.680;2022-07-06T04:04:42;97578.84;;;21.93;40.27
55171;BME280;41060;47.510;8.680;2022-07-06T04:07:08;97582.22;;;22.10;39.62
55171;BME280;41060;47.510;8.680;2022-07-06T04:09:35;97575.16;;;22.23;39.23
55171;BME280;41060;47.510;8.680;2022-07-06T04:12:04;97560.75;;;22.16;39.43
55171;BME280;41060;47.510;8.680;2022-07-06T04:14:33;97590.09;;;22.11;39.35
55171;BME280;41060;47.510;8.680;2022-07-06T04:17:00;97592.91;;;21.58;40.62
55171;BME280;41060;47.510;8.680;2022-07-06T04:19:48;97583.81;;;21.36;41.06
55171;BME280;41060;47.510;8.680;2022-07-06T04:22:16;97600.31;;;21.33;41.33
55171;BME280;41060;47.510;8.680;2022-07-06T04:24:42;97595.38;;;21.36;41.35
55171;BME280;41060;47.510;8.680;2022-07-06T04:27:10;97603.28;;;21.38;41.32
55171;BME280;41060;47.510;8.680;2022-07-06T04:29:38;97597.81;;;21.54;40.76
55171;BME280;41060;47.510;8.680;2022-07-06T04:32:05;97603.41;;;21.75;40.76
55171;BME280;41060;47.510;8.680;2022-07-06T04:34:32;97607.03;;;21.82;40.19
55171;BME280;41060;47.510;8.680;2022-07-06T04:36:59;97604.84;;;21.86;39.81
55171;BME280;41060;47.510;8.680;2022-07-06T04:39:26;97610.97;;;21.80;40.22
55171;BME280;41060;47.510;8.680;2022-07-06T04:41:53;97607.53;;;21.86;40.10
55171;BME280;41060;47.510;8.680;2022-07-06T04:44:21;97611.31;;;21.77;40.23
55171;BME280;41060;47.510;8.680;2022-07-06T04:46:48;97607.38;;;21.88;40.43
55171;BME280;41060;47.510;8.680;2022-07-06T04:49:15;97604.72;;;22.02;40.12
55171;BME280;41060;47.510;8.680;2022-07-06T04:51:42;97604.06;;;22.15;39.73
55171;BME280;41060;47.510;8.680;2022-07-06T04:54:08;97608.00;;;22.27;40.12
55171;BME280;41060;47.510;8.680;2022-07-06T04:56:35;97612.28;;;22.36;39.39
55171;BME280;41060;47.510;8.680;2022-07-06T04:59:05;97606.66;;;22.46;39.85
55171;BME280;41060;47.510;8.680;2022-07-06T05:01:33;97610.56;;;22.58;39.83
55171;BME280;41060;47.510;8.680;2022-07-06T05:04:00;97605.94;;;22.67;39.46
55171;BME280;41060;47.510;8.680;2022-07-06T05:06:27;97605.66;;;22.76;39.56
55171;BME280;41060;47.510;8.680;2022-07-06T05:08:54;97602.38;;;22.81;39.55
55171;BME280;41060;47.510;8.680;2022-07-06T05:11:20;97603.88;;;22.83;39.87
55171;BME280;41060;47.510;8.680;2022-07-06T05:13:47;97609.38;;;22.90;39.83
55171;BME280;41060;47.510;8.680;2022-07-06T05:16:14;97611.88;;;22.91;39.83
55171;BME280;41060;47.510;8.680;2022-07-06T05:18:42;97616.88;;;22.94;39.79
55171;BME280;41060;47.510;8.680;2022-07-06T05:21:13;97602.84;;;22.99;39.46
55171;BME280;41060;47.510;8.680;2022-07-06T05:23:39;97610.38;;;23.03;39.43
55171;BME280;41060;47.510;8.680;2022-07-06T05:26:07;97611.03;;;23.06;39.65
55171;BME280;41060;47.510;8.680;2022-07-06T05:28:34;97613.34;;;23.09;39.49
55171;BME280;41060;47.510;8.680;2022-07-06T05:31:01;97620.63;;;23.08;39.56
55171;BME280;41060;47.510;8.680;2022-07-06T05:33:27;97613.72;;;23.06;39.59
55171;BME280;41060;47.510;8.680;2022-07-06T05:35:56;97624.31;;;23.07;39.86
55171;BME280;41060;47.510;8.680;2022-07-06T05:38:25;97620.34;;;23.03;40.18
55171;BME280;41060;47.510;8.680;2022-07-06T05:40:52;97621.53;;;22.56;41.53
55171;BME280;41060;47.510;8.680;2022-07-06T05:43:19;97631.97;;;21.84;43.34
55171;BME280;41060;47.510;8.680;2022-07-06T05:45:46;97631.41;;;21.43;44.58
55171;BME280;41060;47.510;8.680;2022-07-06T05:48:15;97631.53;;;21.19;45.48
55171;BME280;41060;47.510;8.680;2022-07-06T05:51:01;97635.56;;;20.76;46.26
55171;BME280;41060;47.510;8.680;2022-07-06T05:53:28;97635.25;;;20.63;47.43
55171;BME280;41060;47.510;8.680;2022-07-06T05:55:55;97638.16;;;20.45;47.85
55171;BME280;41060;47.510;8.680;2022-07-06T05:58:22;97628.28;;;20.29;47.79
55171;BME280;41060;47.510;8.680;2022-07-06T06:00:52;97637.00;;;20.31;48.04
55171;BME280;41060;47.510;8.680;2022-07-06T06:03:18;97623.72;;;20.30;48.06
55171;BME280;41060;47.510;8.680;2022-07-06T06:05:46;97626.84;;;20.58;47.29
55171;BME280;41060;47.510;8.680;2022-07-06T06:08:14;97624.44;;;20.71;47.44
55171;BME280;41060;47.510;8.680;2022-07-06T06:10:40;97632.53;;;20.71;46.91
55171;BME280;41060;47.510;8.680;2022-07-06T06:13:09;97631.88;;;20.69;46.53
55171;BME280;41060;47.510;8.680;2022-07-06T06:15:35;97635.53;;;20.84;45.31
55171;BME280;41060;47.510;8.680;2022-07-06T06:18:02;97632.97;;;20.91;44.99
55171;BME280;41060;47.510;8.680;2022-07-06T06:20:30;97639.38;;;20.90;44.92
55171;BME280;41060;47.510;8.680;2022-07-06T06:22:58;97627.09;;;20.87;44.56
55171;BME280;41060;47.510;8.680;2022-07-06T06:25:30;97640.81;;;21.08;43.60
55171;BME280;41060;47.510;8.680;2022-07-06T06:27:58;97633.41;;;21.10;43.11
55171;BME280;41060;47.510;8.680;2022-07-06T06:30:25;97638.16;;;21.00;42.14
55171;BME280;41060;47.510;8.680;2022-07-06T06:33:09;97640.22;;;21.29;41.80
55171;BME280;41060;47.510;8.680;2022-07-06T06:35:38;97640.78;;;21.17;41.90
55171;BME280;41060;47.510;8.680;2022-07-06T06:38:08;97637.63;;;21.13;42.25
55171;BME280;41060;47.510;8.680;2022-07-06T06:40:36;97639.66;;;21.11;42.72
55171;BME280;41060;47.510;8.680;2022-07-06T06:43:03;97630.47;;;21.28;42.86
55171;BME280;41060;47.510;8.680;2022-07-06T06:45:30;97633.88;;;21.76;41.93
55171;BME280;41060;47.510;8.680;2022-07-06T06:47:57;97624.50;;;21.95;41.40
55171;BME280;41060;47.510;8.680;2022-07-06T06:50:24;97634.88;;;21.98;40.87
55171;BME280;41060;47.510;8.680;2022-07-06T06:52:54;97633.22;;;21.74;41.88
55171;BME280;41060;47.510;8.680;2022-07-06T06:55:21;97634.66;;;22.07;39.87
55171;BME280;41060;47.510;8.680;2022-07-06T06:57:49;97630.06;;;22.31;38.70
55171;BME280;41060;47.510;8.680;2022-07-06T07:00:16;97632.44;;;22.25;39.38
55171;BME280;41060;47.510;8.680;2022-07-06T07:02:44;97618.72;;;22.35;37.35
55171;BME280;41060;47.510;8.680;2022-07-06T07:05:11;97603.63;;;22.26;38.21
55171;BME280;41060;47.510;8.680;2022-07-06T07:07:38;97626.50;;;22.53;36.94
55171;BME280;41060;47.510;8.680;2022-07-06T07:10:06;97624.72;;;22.45;35.86
55171;BME280;41060;47.510;8.680;2022-07-06T07:12:33;97617.50;;;22.23;36.33
55171;BME280;41060;47.510;8.680;2022-07-06T07:15:01;97617.41;;;22.31;36.98
55171;BME280;41060;47.510;8.680;2022-07-06T07:17:28;97617.72;;;22.51;36.87
55171;BME280;41060;47.510;8.680;2022-07-06T07:19:56;97617.00;;;22.72;37.25
55171;BME280;41060;47.510;8.680;2022-07-06T07:22:22;97616.53;;;22.83;36.16
55171;BME280;41060;47.510;8.680;2022-07-06T07:24:50;97619.16;;;22.91;36.28
55171;BME280;41060;47.510;8.680;2022-07-06T07:27:17;97610.47;;;23.10;35.56
55171;BME280;41060;47.510;8.680;2022-07-06T07:29:43;97620.59;;;23.23;36.19
55171;BME280;41060;47.510;8.680;2022-07-06T07:32:11;97618.50;;;23.39;36.10
55171;BME280;41060;47.510;8.680;2022-07-06T07:34:39;97619.06;;;23.50;35.87
55171;BME280;41060;47.510;8.680;2022-07-06T07:37:05;97613.38;;;23.45;34.34
55171;BME280;41060;47.510;8.680;2022-07-06T07:39:32;97622.00;;;23.19;35.79
55171;BME280;41060;47.510;8.680;2022-07-06T07:41:59;97615.22;;;23.08;36.24
55171;BME280;41060;47.510;8.680;2022-07-06T07:44:26;97627.16;;;22.99;35.97
55171;BME280;41060;47.510;8.680;2022-07-06T07:46:53;97613.63;;;22.84;35.96
55171;BME280;41060;47.510;8.680;2022-07-06T07:49:23;97621.09;;;22.97;37.19
55171;BME280;41060;47.510;8.680;2022-07-06T07:51:50;97617.91;;;23.23;35.90
55171;BME280;41060;47.510;8.680;2022-07-06T07:54:17;97614.72;;;23.34;36.34
55171;BME280;41060;47.510;8.680;2022-07-06T07:56:44;97615.63;;;23.41;35.88
55171;BME280;41060;47.510;8.680;2022-07-06T07:59:11;97613.81;;;23.27;36.24
55171;BME280;41060;47.510;8.680;2022-07-06T08:01:38;97624.53;;;23.06;36.40
55171;BME280;41060;47.510;8.680;2022-07-06T08:04:08;97614.28;;;23.16;36.94
55171;BME280;41060;47.510;8.680;2022-07-06T08:06:36;97609.13;;;23.35;35.97
55171;BME280;41060;47.510;8.680;2022-07-06T08:09:03;97600.16;;;23.14;35.96
55171;BME280;41060;47.510;8.680;2022-07-06T08:11:33;97620.84;;;23.43;35.99
55171;BME280;41060;47.510;8.680;2022-07-06T08:13:59;97616.34;;;23.50;35.42
55171;BME280;41060;47.510;8.680;2022-07-06T08:16:26;97617.94;;;23.80;35.42
55171;BME280;41060;47.510;8.680;2022-07-06T08:18:53;97619.66;;;24.09;35.21
55171;BME280;41060;47.510;8.680;2022-07-06T08:21:20;97613.00;;;24.11;34.67
55171;BME280;41060;47.510;8.680;2022-07-06T08:23:48;97625.44;;;24.06;34.78
55171;BME280;41060;47.510;8.680;2022-07-06T08:26:16;97620.38;;;23.96;35.01
55171;BME280;41060;47.510;8.680;2022-07-06T08:28:43;97626.38;;;23.92;35.83
55171;BME280;41060;47.510;8.680;2022-07-06T08:31:09;97626.28;;;24.06;35.55
55171;BME280;41060;47.510;8.680;2022-07-06T08:33:37;97618.22;;;24.13;34.37
55171;BME280;41060;47.510;8.680;2022-07-06T08:36:04;97621.47;;;24.02;34.20
55171;BME280;41060;47.510;8.680;2022-07-06T08:38:31;97619.75;;;23.94;34.60
55171;BME280;41060;47.510;8.680;2022-07-06T08:40:59;97615.09;;;23.88;34.78
55171;BME280;41060;47.510;8.680;2022-07-06T08:43:26;97630.91;;;23.70;34.14
55171;BME280;41060;47.510;8.680;2022-07-06T08:45:55;97625.66;;;23.83;35.31
55171;BME280;41060;47.510;8.680;2022-07-06T08:48:23;97627.06;;;24.00;34.76
55171;BME280;41060;47.510;8.680;2022-07-06T08:50:51;97627.19;;;24.13;34.26
55171;BME280;41060;47.510;8.680;2022-07-06T08:53:20;97628.91;;;24.21;35.25
55171;BME280;41060;47.510;8.680;2022-07-06T08:55:49;97632.88;;;24.25;34.21
55171;BME280;41060;47.510;8.680;2022-07-06T08:58:18;97629.88;;;24.13;34.97
55171;BME280;41060;47.510;8.680;2022-07-06T09:00:45;97636.75;;;24.37;34.89
55171;BME280;41060;47.510;8.680;2022-07-06T09:03:12;97637.31;;;24.33;33.86
55171;BME280;41060;47.510;8.680;2022-07-06T09:05:40;97634.13;;;24.44;33.79
55171;BME280;41060;47.510;8.680;2022-07-06T09:08:11;97632.56;;;24.63;33.99
55171;BME280;41060;47.510;8.680;2022-07-06T09:10:38;97633.31;;;24.84;33.67
55171;BME280;41060;47.510;8.680;2022-07-06T09:13:06;97630.81;;;24.76;33.58
55171;BME280;41060;47.510;8.680;2022-07-06T09:15:36;97637.53;;;24.87;33.60
55171;BME280;41060;47.510;8.680;2022-07-06T09:18:05;97605.22;;;24.85;33.87
55171;BME280;41060;47.510;8.680;2022-07-06T09:20:32;97635.00;;;25.13;33.07
55171;BME280;41060;47.510;8.680;2022-07-06T09:22:59;97641.47;;;25.19;33.45
55171;BME280;41060;47.510;8.680;2022-07-06T09:25:27;97640.47;;;25.26;32.72
55171;BME280;41060;47.510;8.680;2022-07-06T09:27:56;97634.81;;;24.87;32.95
55171;BME280;41060;47.510;8.680;2022-07-06T09:30:23;97632.94;;;24.53;32.78
55171;BME280;41060;47.510;8.680;2022-07-06T09:32:56;97610.31;;;24.11;33.57
55171;BME280;41060;47.510;8.680;2022-07-06T09:35:24;97636.66;;;24.24;33.69
55171;BME280;41060;47.510;8.680;2022-07-06T09:38:03;97632.91;;;24.46;35.21
55171;BME280;41060;47.510;8.680;2022-07-06T09:40:32;97634.78;;;24.80;34.69
55171;BME280;41060;47.510;8.680;2022-07-06T09:43:10;97637.66;;;25.07;34.03
55171;BME280;41060;47.510;8.680;2022-07-06T09:45:39;97635.72;;;25.35;33.86
55171;BME280;41060;47.510;8.680;2022-07-06T09:48:11;97630.97;;;25.57;32.16
55171;BME280;41060;47.510;8.680;2022-07-06T09:50:39;97630.97;;;25.57;32.47
55171;BME280;41060;47.510;8.680;2022-07-06T09:53:07;97637.41;;;25.43;31.92
55171;BME280;41060;47.510;8.680;2022-07-06T09:55:34;97633.72;;;25.16;32.75
55171;BME280;41060;47.510;8.680;2022-07-06T09:58:01;97640.00;;;25.16;33.06
55171;BME280;41060;47.510;8.680;2022-07-06T10:00:29;97628.94;;;25.11;31.13
55171;BME280;41060;47.510;8.680;2022-07-06T10:02:56;97638.41;;;25.01;31.17
55171;BME280;41060;47.510;8.680;2022-07-06T10:05:25;97603.44;;;24.99;32.06
55171;BME280;41060;47.510;8.680;2022-07-06T10:07:57;97640.72;;;25.38;31.40
55171;BME280;41060;47.510;8.680;2022-07-06T10:10:25;97630.97;;;25.57;31.52
55171;BME280;41060;47.510;8.680;2022-07-06T10:12:54;97628.97;;;25.72;31.01
55171;BME280;41060;47.510;8.680;2022-07-06T10:15:22;97625.22;;;25.86;30.25
55171;BME280;41060;47.510;8.680;2022-07-06T10:17:50;97620.66;;;26.00;30.54
55171;BME280;41060;47.510;8.680;2022-07-06T10:20:17;97617.94;;;25.80;30.69
55171;BME280;41060;47.510;8.680;2022-07-06T10:22:47;97625.44;;;25.98;32.44
55171;BME280;41060;47.510;8.680;2022-07-06T10:25:15;97632.53;;;25.99;30.45
55171;BME280;41060;47.510;8.680;2022-07-06T10:27:42;97623.34;;;25.87;31.17
55171;BME280;41060;47.510;8.680;2022-07-06T10:30:10;97629.69;;;25.53;29.74
55171;BME280;41060;47.510;8.680;2022-07-06T10:32:38;97623.13;;;25.82;30.89
55171;BME280;41060;47.510;8.680;2022-07-06T10:35:07;97623.56;;;25.92;31.54
55171;BME280;41060;47.510;8.680;2022-07-06T10:37:34;97626.72;;;25.95;30.64
55171;BME280;41060;47.510;8.680;2022-07-06T10:40:03;97627.53;;;25.96;29.47
55171;BME280;41060;47.510;8.680;2022-07-06T10:42:50;97631.13;;;26.29;29.52
55171;BME280;41060;47.510;8.680;2022-07-06T10:48:16;97605.59;;;26.76;29.33
55171;BME280;41060;47.510;8.680;2022-07-06T10:50:47;97611.66;;;26.92;28.26
55171;BME280;41060;47.510;8.680;2022-07-06T10:53:15;97607.22;;;27.04;28.57
55171;BME280;41060;47.510;8.680;2022-07-06T10:55:45;97609.06;;;27.10;29.08
55171;BME280;41060;47.510;8.680;2022-07-06T10:58:34;97596.50;;;27.15;28.90
55171;BME280;41060;47.510;8.680;2022-07-06T11:01:01;97588.78;;;27.12;28.00
55171;BME280;41060;47.510;8.680;2022-07-06T11:03:33;97590.13;;;27.35;28.80
55171;BME280;41060;47.510;8.680;2022-07-06T11:06:01;97589.34;;;27.28;28.34
55171;BME280;41060;47.510;8.680;2022-07-06T11:08:45;97575.13;;;27.26;28.75
55171;BME280;41060;47.510;8.680;2022-07-06T11:11:14;97581.00;;;27.60;28.58
55171;BME280;41060;47.510;8.680;2022-07-06T11:13:59;97580.44;;;27.52;27.25
55171;BME280;41060;47.510;8.680;2022-07-06T11:16:28;97576.16;;;27.69;27.51
55171;BME280;41060;47.510;8.680;2022-07-06T11:19:04;97574.53;;;27.93;27.87
55171;BME280;41060;47.510;8.680;2022-07-06T11:21:36;97575.44;;;28.12;26.66
55171;BME280;41060;47.510;8.680;2022-07-06T11:24:06;97572.91;;;28.17;27.81
55171;BME280;41060;47.510;8.680;2022-07-06T11:26:35;97564.19;;;28.26;27.20
55171;BME280;41060;47.510;8.680;2022-07-06T11:29:03;97570.38;;;28.40;26.27
55171;BME280;41060;47.510;8.680;2022-07-06T11:31:34;97568.22;;;28.24;26.09
55171;BME280;41060;47.510;8.680;2022-07-06T11:34:06;97573.47;;;27.94;24.57
55171;BME280;41060;47.510;8.680;2022-07-06T11:36:34;97562.81;;;27.92;24.91
55171;BME280;41060;47.510;8.680;2022-07-06T11:39:01;97562.19;;;27.90;27.02
55171;BME280;41060;47.510;8.680;2022-07-06T11:41:28;97557.06;;;27.76;25.59
55171;BME280;41060;47.510;8.680;2022-07-06T11:43:57;97548.47;;;27.79;25.44
55171;BME280;41060;47.510;8.680;2022-07-06T11:46:25;97554.19;;;27.71;24.58
55171;BME280;41060;47.510;8.680;2022-07-06T11:48:54;97555.38;;;27.75;24.48
55171;BME280;41060;47.510;8.680;2022-07-06T11:51:22;97556.75;;;27.90;23.89
55171;BME280;41060;47.510;8.680;2022-07-06T11:53:51;97560.50;;;27.89;24.13
55171;BME280;41060;47.510;8.680;2022-07-06T11:56:18;97550.66;;;27.88;25.10
55171;BME280;41060;47.510;8.680;2022-07-06T11:58:49;97553.59;;;27.93;26.50
55171;BME280;41060;47.510;8.680;2022-07-06T12:01:17;97546.31;;;28.12;25.73
55171;BME280;41060;47.510;8.680;2022-07-06T12:03:44;97537.03;;;27.95;24.31
55171;BME280;41060;47.510;8.680;2022-07-06T12:06:19;97553.75;;;27.98;24.60
55171;BME280;41060;47.510;8.680;2022-07-06T12:08:47;97556.63;;;28.10;25.70
55171;BME280;41060;47.510;8.680;2022-07-06T12:11:22;97539.59;;;28.15;24.93
55171;BME280;41060;47.510;8.680;2022-07-06T12:13:50;97546.59;;;28.29;24.88
55171;BME280;41060;47.510;8.680;2022-07-06T12:16:21;97550.66;;;28.20;24.37
55171;BME280;41060;47.510;8.680;2022-07-06T12:18:49;97542.69;;;28.43;24.78
55171;BME280;41060;47.510;8.680;2022-07-06T12:21:19;97538.81;;;28.76;25.20
55171;BME280;41060;47.510;8.680;2022-07-06T12:23:49;97541.84;;;28.67;26.33
55171;BME280;41060;47.510;8.680;2022-07-06T12:26:19;97544.25;;;28.76;25.11
55171;BME280;41060;47.510;8.680;2022-07-06T12:28:58;97543.13;;;28.83;25.27
55171;BME280;41060;47.510;8.680;2022-07-06T12:31:40;97538.50;;;28.84;24.97
55171;BME280;41060;47.510;8.680;2022-07-06T12:34:13;97531.84;;;28.61;22.83
55171;BME280;41060;47.510;8.680;2022-07-06T12:36:45;97534.84;;;28.53;24.14
55171;BME280;41060;47.510;8.680;2022-07-06T12:39:12;97514.19;;;28.46;26.28
55171;BME280;41060;47.510;8.680;2022-07-06T12:41:44;97536.84;;;28.83;25.86
55171;BME280;41060;47.510;8.680;2022-07-06T12:44:12;97523.50;;;28.74;24.87
55171;BME280;41060;47.510;8.680;2022-07-06T12:46:44;97533.19;;;28.70;26.06
55171;BME280;41060;47.510;8.680;2022-07-06T12:49:13;97511.16;;;28.72;25.05
55171;BME280;41060;47.510;8.680;2022-07-06T12:51:56;97518.56;;;29.01;25.71
55171;BME280;41060;47.510;8.680;2022-07-06T12:54:24;97511.38;;;28.89;23.92
55171;BME280;41060;47.510;8.680;2022-07-06T12:56:57;97502.06;;;28.96;23.56
55171;BME280;41060;47.510;8.680;2022-07-06T12:59:24;97505.81;;;28.65;24.51
55171;BME280;41060;47.510;8.680;2022-07-06T13:01:53;97509.66;;;28.76;24.67
55171;BME280;41060;47.510;8.680;2022-07-06T13:04:22;97507.75;;;28.95;24.14
55171;BME280;41060;47.510;8.680;2022-07-06T13:06:49;97511.53;;;29.12;24.58
55171;BME280;41060;47.510;8.680;2022-07-06T13:09:16;97513.31;;;29.36;24.07